createdAt,value
2019-05-12T00:00:31.332Z,13.90
2019-05-12T00:03:04.047Z,14.93
2019-05-12T00:05:38.236Z,18.00
2019-05-12T00:08:11.503Z,18.73
2019-05-12T00:10:43.567Z,19.87
2019-05-12T00:13:19.693Z,22.00
2019-05-12T00:15:58.940Z,23.53
2019-05-12T00:18:37.929Z,25.00
2019-05-12T00:21:14.310Z,23.47
2019-05-12T00:24:01.442Z,24.17
2019-05-12T00:26:38.794Z,24.67
2019-05-12T00:29:07.708Z,23.83
2019-05-12T00:31:41.157Z,22.60
2019-05-12T00:34:17.956Z,23.10
2019-05-12T00:36:45.481Z,21.73
2019-05-12T00:39:19.328Z,21.63
2019-05-12T00:42:02.020Z,21.43
2019-05-12T00:44:53.270Z,20.77
2019-05-12T00:47:52.358Z,20.07
2019-05-12T00:50:18.727Z,20.53
2019-05-12T00:52:49.898Z,19.80
2019-05-12T00:55:23.428Z,19.30
2019-05-12T00:58:00.942Z,18.87
2019-05-12T01:00:30.650Z,19.30
2019-05-12T01:03:14.224Z,18.57
2019-05-12T01:05:38.313Z,18.43
2019-05-12T01:08:13.036Z,18.30
2019-05-12T01:10:44.568Z,17.70
2019-05-12T01:13:18.875Z,19.10
2019-05-12T01:15:55.416Z,17.63
2019-05-12T01:18:29.071Z,18.00
2019-05-12T01:21:04.732Z,16.73
2019-05-12T01:23:34.491Z,16.43
2019-05-12T01:26:17.835Z,17.00
2019-05-12T01:28:55.163Z,17.47
2019-05-12T01:31:22.096Z,17.23
2019-05-12T01:33:52.845Z,16.33
2019-05-12T01:36:22.460Z,17.50
2019-05-12T01:38:53.421Z,16.37
2019-05-12T01:41:33.086Z,17.47
2019-05-12T01:44:08.808Z,17.03
2019-05-12T01:46:41.628Z,17.33
2019-05-12T01:49:18.510Z,18.07
2019-05-12T01:51:59.948Z,17.50
2019-05-12T01:54:41.518Z,18.17
2019-05-12T01:57:21.327Z,16.20
2019-05-12T01:59:52.686Z,17.40
2019-05-12T02:02:28.418Z,18.20
2019-05-12T02:05:11.425Z,16.43
2019-05-12T02:07:47.782Z,17.27
2019-05-12T02:10:20.899Z,17.00
2019-05-12T02:12:59.046Z,16.57
2019-05-12T02:15:32.371Z,16.40
2019-05-12T02:18:04.534Z,16.50
2019-05-12T02:20:37.947Z,16.80
2019-05-12T02:23:13.121Z,16.33
2019-05-12T02:25:41.513Z,16.87
2019-05-12T02:28:17.995Z,17.77
2019-05-12T02:30:50.193Z,17.50
2019-05-12T02:33:20.697Z,16.73
2019-05-12T02:35:56.080Z,17.20
2019-05-12T02:38:33.458Z,17.20
2019-05-12T02:41:05.085Z,17.67
2019-05-12T02:43:36.649Z,17.77
2019-05-12T02:46:11.171Z,17.73
2019-05-12T02:48:45.000Z,16.63
2019-05-12T02:51:18.165Z,16.73
2019-05-12T02:53:50.688Z,18.03
2019-05-12T02:56:27.357Z,17.27
2019-05-12T02:59:05.224Z,17.20
2019-05-12T03:01:35.597Z,17.67
2019-05-12T03:04:06.579Z,17.43
2019-05-12T03:06:38.311Z,17.73
2019-05-12T03:09:10.805Z,18.03
2019-05-12T03:11:44.773Z,18.43
2019-05-12T03:14:18.639Z,19.30
2019-05-12T03:16:50.314Z,19.57
2019-05-12T03:19:25.019Z,18.03
2019-05-12T03:21:55.431Z,17.53
2019-05-12T03:24:25.161Z,18.27
2019-05-12T03:26:55.468Z,17.23
2019-05-12T03:29:28.348Z,16.83
2019-05-12T03:32:07.958Z,18.13
2019-05-12T03:34:38.395Z,18.57
2019-05-12T03:37:10.271Z,17.43
2019-05-12T03:39:44.753Z,17.00
2019-05-12T03:42:24.932Z,18.07
2019-05-12T03:44:59.047Z,18.57
2019-05-12T03:47:28.712Z,17.93
2019-05-12T03:49:58.392Z,17.17
2019-05-12T03:52:35.208Z,18.00
2019-05-12T03:55:30.779Z,17.80
2019-05-12T03:57:55.027Z,18.27
2019-05-12T04:00:44.639Z,18.30
2019-05-12T04:03:10.933Z,17.93
2019-05-12T04:05:40.891Z,17.63
2019-05-12T04:08:16.488Z,16.57
2019-05-12T04:10:57.665Z,18.13
2019-05-12T04:13:22.459Z,17.63
2019-05-12T04:16:00.020Z,18.60
2019-05-12T04:18:48.956Z,17.03
2019-05-12T04:21:18.638Z,17.70
2019-05-12T04:23:49.862Z,17.73
2019-05-12T04:26:25.015Z,17.03
2019-05-12T04:28:55.537Z,17.57
2019-05-12T04:31:46.145Z,17.90
2019-05-12T04:34:19.263Z,17.10
2019-05-12T04:36:50.448Z,16.97
2019-05-12T04:39:34.101Z,15.63
2019-05-12T04:42:08.203Z,17.30
2019-05-12T04:44:39.435Z,16.30
2019-05-12T04:47:16.795Z,16.07
2019-05-12T04:49:45.664Z,16.50
2019-05-12T04:52:24.722Z,15.40
2019-05-12T04:54:55.260Z,16.37
2019-05-12T04:58:16.802Z,15.28
2019-05-12T05:00:05.254Z,15.43
2019-05-12T05:03:30.428Z,15.15
2019-05-12T05:06:04.511Z,14.70
2019-05-12T05:08:48.742Z,15.40
2019-05-12T05:11:18.694Z,15.60
2019-05-12T05:14:08.622Z,39.58
2019-05-12T05:16:30.544Z,55.85
2019-05-12T05:19:13.323Z,42.43
2019-05-12T05:21:47.949Z,22.98
2019-05-12T05:24:26.342Z,15.20
2019-05-12T05:27:13.313Z,14.73
2019-05-12T05:29:46.935Z,14.05
2019-05-12T05:32:18.583Z,14.53
2019-05-12T05:35:03.525Z,14.55
2019-05-12T05:37:37.023Z,13.40
2019-05-12T05:40:07.677Z,13.32
2019-05-12T05:43:14.028Z,14.80
2019-05-12T05:45:45.527Z,13.93
2019-05-12T05:48:21.127Z,13.93
2019-05-12T05:50:59.863Z,12.82
2019-05-12T05:53:35.687Z,14.18
2019-05-12T05:56:11.418Z,13.28
2019-05-12T05:58:51.709Z,12.82
2019-05-12T06:01:20.010Z,15.48
2019-05-12T06:03:58.267Z,13.70
2019-05-12T06:06:34.041Z,12.65
2019-05-12T06:09:06.958Z,13.65
2019-05-12T06:11:38.802Z,16.85
2019-05-12T06:14:34.221Z,15.28
2019-05-12T06:17:06.470Z,13.22
2019-05-12T06:19:40.364Z,12.47
2019-05-12T06:22:18.188Z,12.78
2019-05-12T06:24:53.906Z,13.05
2019-05-12T06:27:26.270Z,11.55
2019-05-12T06:30:10.071Z,11.10
2019-05-12T06:32:41.217Z,12.68
2019-05-12T06:35:10.522Z,11.33
2019-05-12T06:38:05.367Z,11.80
2019-05-12T06:40:45.670Z,11.85
2019-05-12T06:43:13.859Z,12.23
2019-05-12T06:45:47.675Z,11.68
2019-05-12T06:48:30.194Z,11.75
2019-05-12T06:51:17.116Z,11.75
2019-05-12T06:53:46.364Z,11.75
2019-05-12T06:56:19.812Z,11.70
2019-05-12T06:58:54.600Z,12.30
2019-05-12T07:01:33.468Z,10.10
2019-05-12T07:04:10.083Z,13.78
2019-05-12T07:06:44.108Z,10.50
2019-05-12T07:09:26.021Z,11.22
2019-05-12T07:12:02.949Z,9.93
2019-05-12T07:14:57.121Z,10.95
2019-05-12T07:17:49.571Z,9.35
2019-05-12T07:20:24.118Z,10.48
2019-05-12T07:22:56.979Z,10.70
2019-05-12T07:25:31.509Z,9.05
2019-05-12T07:28:08.673Z,9.25
2019-05-12T07:30:40.868Z,9.23
2019-05-12T07:33:15.280Z,8.83
2019-05-12T07:35:53.193Z,9.45
2019-05-12T07:38:46.899Z,9.60
2019-05-12T07:41:25.797Z,8.48
2019-05-12T07:44:03.652Z,9.10
2019-05-12T07:47:03.500Z,8.78
2019-05-12T07:52:04.138Z,10.30
2019-05-12T07:54:39.473Z,10.60
2019-05-12T07:57:17.177Z,9.28
2019-05-12T07:59:43.793Z,9.05
2019-05-12T08:02:31.438Z,7.78
2019-05-12T08:04:56.193Z,8.45
2019-05-12T08:07:30.032Z,8.35
2019-05-12T08:10:01.375Z,8.65
2019-05-12T08:12:35.251Z,8.20
2019-05-12T08:15:09.677Z,7.12
2019-05-12T08:17:38.425Z,7.75
2019-05-12T08:20:10.621Z,7.97
2019-05-12T08:22:44.011Z,6.62
2019-05-12T08:25:18.750Z,6.22
2019-05-12T08:27:50.277Z,6.47
2019-05-12T08:30:18.654Z,6.22
2019-05-12T08:32:54.717Z,5.72
2019-05-12T08:35:29.431Z,6.37
2019-05-12T08:37:57.694Z,5.85
2019-05-12T08:40:27.240Z,5.90
2019-05-12T08:42:59.423Z,5.42
2019-05-12T08:45:34.147Z,4.78
2019-05-12T08:48:10.015Z,4.75
2019-05-12T08:50:37.434Z,4.67
2019-05-12T08:53:14.018Z,4.95
2019-05-12T08:55:39.218Z,4.60
2019-05-12T08:58:08.882Z,4.50
2019-05-12T09:00:46.456Z,5.20
2019-05-12T09:03:14.289Z,3.83
2019-05-12T09:05:51.005Z,3.70
2019-05-12T09:08:21.189Z,3.17
2019-05-12T09:10:55.491Z,5.03
2019-05-12T09:13:26.952Z,3.98
2019-05-12T09:15:56.501Z,4.17
2019-05-12T09:18:34.212Z,4.70
2019-05-12T09:21:03.591Z,4.35
2019-05-12T09:23:41.211Z,4.00
2019-05-12T09:26:13.479Z,3.90
2019-05-12T09:28:49.833Z,3.75
2019-05-12T09:31:19.562Z,3.75
2019-05-12T09:33:48.258Z,3.65
2019-05-12T09:36:21.656Z,3.40
2019-05-12T09:38:55.862Z,4.10
2019-05-12T09:41:24.030Z,3.70
2019-05-12T09:43:53.977Z,4.00
2019-05-12T09:46:28.420Z,4.40
2019-05-12T09:48:56.183Z,3.45
2019-05-12T09:51:25.681Z,3.60
2019-05-12T09:53:55.665Z,3.92
2019-05-12T09:56:25.143Z,3.90
2019-05-12T09:59:01.428Z,4.60
2019-05-12T10:01:29.188Z,3.30
2019-05-12T10:03:57.316Z,3.60
2019-05-12T10:06:26.787Z,3.58
2019-05-12T10:08:56.320Z,3.50
2019-05-12T10:11:25.888Z,2.92
2019-05-12T10:14:00.201Z,2.77
2019-05-12T10:16:33.438Z,3.37
2019-05-12T10:19:04.803Z,2.83
2019-05-12T10:21:36.041Z,2.98
2019-05-12T10:24:07.964Z,2.77
2019-05-12T10:26:41.240Z,2.80
2019-05-12T10:29:17.540Z,2.65
2019-05-12T10:31:41.385Z,2.50
2019-05-12T10:34:20.297Z,2.52
2019-05-12T10:36:50.884Z,2.40
2019-05-12T10:39:20.922Z,2.20
2019-05-12T10:41:53.917Z,2.33
2019-05-12T10:44:30.169Z,2.50
2019-05-12T10:46:59.865Z,2.58
2019-05-12T10:49:30.836Z,3.40
2019-05-12T10:52:00.445Z,2.50
2019-05-12T10:54:31.226Z,2.50
2019-05-12T10:57:00.867Z,2.17
2019-05-12T10:59:33.501Z,3.15
2019-05-12T11:02:04.138Z,2.20
2019-05-12T11:04:39.419Z,2.40
2019-05-12T11:07:13.659Z,2.30
2019-05-12T11:09:43.944Z,2.40
2019-05-12T11:12:19.234Z,2.42
2019-05-12T11:14:48.795Z,2.35
2019-05-12T11:17:18.422Z,2.70
2019-05-12T11:19:52.008Z,2.30
2019-05-12T11:22:22.770Z,2.42
2019-05-12T11:24:56.107Z,2.47
2019-05-12T11:27:25.763Z,2.10
2019-05-12T11:29:57.038Z,2.17
2019-05-12T11:32:28.799Z,1.82
2019-05-12T11:34:59.482Z,1.90
2019-05-12T11:37:33.691Z,1.70
2019-05-12T11:40:00.808Z,2.10
2019-05-12T11:42:30.586Z,1.95
2019-05-12T11:45:03.871Z,2.10
2019-05-12T11:47:37.229Z,1.52
2019-05-12T11:50:13.086Z,1.60
2019-05-12T11:52:45.962Z,1.85
2019-05-12T11:55:15.098Z,1.77
2019-05-12T11:57:46.076Z,1.70
2019-05-12T12:00:20.010Z,1.87
2019-05-12T12:02:50.037Z,1.87
2019-05-12T12:05:19.796Z,2.08
2019-05-12T12:07:52.752Z,2.08
2019-05-12T12:10:20.706Z,2.00
2019-05-12T12:12:53.906Z,2.10
2019-05-12T12:15:30.266Z,1.90
2019-05-12T12:18:12.784Z,1.90
2019-05-12T12:20:39.952Z,1.95
2019-05-12T12:23:11.333Z,2.30
2019-05-12T12:25:48.530Z,2.45
2019-05-12T12:28:16.439Z,2.00
2019-05-12T12:30:52.515Z,2.08
2019-05-12T12:33:19.643Z,2.05
2019-05-12T12:35:50.491Z,2.10
2019-05-12T12:38:20.899Z,2.50
2019-05-12T12:40:53.557Z,2.30
2019-05-12T12:43:30.571Z,2.20
2019-05-12T12:46:19.803Z,2.65
2019-05-12T12:48:43.949Z,2.80
2019-05-12T12:51:17.523Z,2.20
2019-05-12T12:53:47.134Z,3.35
2019-05-12T12:56:28.308Z,2.87
2019-05-12T12:58:47.762Z,2.40
2019-05-12T13:01:26.832Z,2.20
2019-05-12T13:03:48.434Z,2.40
2019-05-12T13:06:17.916Z,2.30
2019-05-12T13:08:47.534Z,2.30
2019-05-12T13:11:30.517Z,2.30
2019-05-12T13:13:49.949Z,9.23
2019-05-12T13:16:23.860Z,3.15
2019-05-12T13:18:53.920Z,15.10
2019-05-12T13:21:23.426Z,11.55
2019-05-12T13:23:54.527Z,14.85
2019-05-12T13:26:26.554Z,29.52
2019-05-12T13:28:56.085Z,22.95
2019-05-12T13:31:25.661Z,4.92
2019-05-12T13:33:56.581Z,3.42
2019-05-12T13:36:29.619Z,2.90
2019-05-12T13:39:00.962Z,3.37
2019-05-12T13:41:33.909Z,4.87
2019-05-12T13:44:03.916Z,2.62
2019-05-12T13:46:34.471Z,4.87
2019-05-12T13:49:05.948Z,2.80
2019-05-12T13:51:35.683Z,2.05
2019-05-12T13:54:07.527Z,2.55
2019-05-12T13:56:37.103Z,2.20
2019-05-12T13:59:12.111Z,2.30
2019-05-12T14:01:45.491Z,2.00
2019-05-12T14:04:13.825Z,2.25
2019-05-12T14:06:42.832Z,2.77
2019-05-12T14:09:13.574Z,5.75
2019-05-12T14:11:43.719Z,4.22
2019-05-12T14:14:15.589Z,4.47
2019-05-12T14:16:52.453Z,19.98
2019-05-12T14:19:15.645Z,4.70
2019-05-12T14:21:45.141Z,12.03
2019-05-12T14:24:14.659Z,49.25
2019-05-12T14:26:45.361Z,7.33
2019-05-12T14:29:15.400Z,3.12
2019-05-12T14:31:55.067Z,2.27
2019-05-12T14:34:20.819Z,2.67
2019-05-12T14:36:48.882Z,2.55
2019-05-12T14:39:18.410Z,2.65
2019-05-12T14:41:53.297Z,2.40
2019-05-12T14:44:18.984Z,2.87
2019-05-12T14:46:50.623Z,2.95
2019-05-12T14:49:20.315Z,3.33
2019-05-12T14:51:53.550Z,2.60
2019-05-12T14:54:23.877Z,3.20
2019-05-12T14:56:57.759Z,3.00
2019-05-12T14:59:24.594Z,2.83
2019-05-12T15:01:59.200Z,3.12
2019-05-12T15:04:29.665Z,2.90
2019-05-12T15:06:59.751Z,3.50
2019-05-12T15:09:27.676Z,3.58
2019-05-12T15:11:57.327Z,3.67
2019-05-12T15:14:32.745Z,3.37
2019-05-12T15:16:58.228Z,3.80
2019-05-12T15:19:29.789Z,4.22
2019-05-12T15:22:01.542Z,4.20
2019-05-12T15:24:29.981Z,5.40
2019-05-12T15:27:03.832Z,8.23
2019-05-12T15:29:33.953Z,11.93
2019-05-12T15:32:06.748Z,10.98
2019-05-12T15:34:36.420Z,9.65
2019-05-12T15:37:10.661Z,9.73
2019-05-12T15:39:44.050Z,7.55
2019-05-12T15:42:20.381Z,7.17
2019-05-12T15:44:53.636Z,7.47
2019-05-12T15:47:27.284Z,7.78
2019-05-12T15:49:54.121Z,7.95
2019-05-12T15:52:24.648Z,8.80
2019-05-12T15:54:54.461Z,8.83
2019-05-12T15:57:24.486Z,9.10
2019-05-12T15:59:54.390Z,8.63
2019-05-12T16:02:27.362Z,8.53
2019-05-12T16:04:57.137Z,9.38
2019-05-12T16:07:29.616Z,9.05
2019-05-12T16:10:00.079Z,10.63
2019-05-12T16:12:31.354Z,10.28
2019-05-12T16:15:04.545Z,10.15
2019-05-12T16:17:34.272Z,10.13
2019-05-12T16:20:07.339Z,9.18
2019-05-12T16:22:44.701Z,8.70
2019-05-12T16:25:15.333Z,8.30
2019-05-12T16:27:47.499Z,8.80
2019-05-12T16:30:20.248Z,7.72
2019-05-12T16:32:48.758Z,8.18
2019-05-12T16:35:26.671Z,7.10
2019-05-12T16:37:54.238Z,7.05
2019-05-12T16:40:26.392Z,7.10
2019-05-12T16:43:00.873Z,7.10
2019-05-12T16:45:33.667Z,6.95
2019-05-12T16:48:07.720Z,7.72
2019-05-12T16:50:34.643Z,6.97
2019-05-12T16:53:05.588Z,7.55
2019-05-12T16:55:44.904Z,6.75
2019-05-12T16:58:07.997Z,7.12
2019-05-12T17:00:45.198Z,6.95
2019-05-12T17:03:16.576Z,8.00
2019-05-12T17:05:50.040Z,7.67
2019-05-12T17:08:24.108Z,7.92
2019-05-12T17:11:00.909Z,7.67
2019-05-12T17:13:25.758Z,7.35
2019-05-12T17:16:00.052Z,8.13
2019-05-12T17:18:30.836Z,8.10
2019-05-12T17:21:04.019Z,7.37
2019-05-12T17:23:32.984Z,7.10
2019-05-12T17:26:05.093Z,7.05
2019-05-12T17:28:36.150Z,7.47
2019-05-12T17:31:05.813Z,7.05
2019-05-12T17:33:39.265Z,6.58
2019-05-12T17:36:12.310Z,6.42
2019-05-12T17:38:44.142Z,7.35
2019-05-12T17:41:18.033Z,8.50
2019-05-12T17:43:59.570Z,8.10
2019-05-12T17:46:23.304Z,10.75
2019-05-12T17:48:53.943Z,8.88
2019-05-12T17:51:26.830Z,8.60
2019-05-12T17:53:56.554Z,8.55
2019-05-12T17:56:34.177Z,14.03
2019-05-12T17:58:57.796Z,9.18
2019-05-12T18:01:31.306Z,12.85
2019-05-12T18:04:01.357Z,9.35
2019-05-12T18:06:31.281Z,7.60
2019-05-12T18:09:09.329Z,7.10
2019-05-12T18:11:36.495Z,8.05
2019-05-12T18:14:07.270Z,8.50
2019-05-12T18:16:43.365Z,7.58
2019-05-12T18:19:15.297Z,8.40
2019-05-12T18:21:47.511Z,7.45
2019-05-12T18:24:18.387Z,7.42
2019-05-12T18:26:56.677Z,7.67
2019-05-12T18:29:28.328Z,8.17
2019-05-12T18:31:55.643Z,11.50
2019-05-12T18:34:33.917Z,10.20
2019-05-12T18:37:15.259Z,11.93
2019-05-12T18:39:44.849Z,11.80
2019-05-12T18:42:14.468Z,9.27
2019-05-12T18:44:48.133Z,9.45
2019-05-12T18:47:25.701Z,8.60
2019-05-12T18:49:53.887Z,10.15
2019-05-12T18:52:29.262Z,11.35
2019-05-12T18:54:59.110Z,15.78
2019-05-12T18:57:39.178Z,10.10
2019-05-12T19:00:17.207Z,15.63
2019-05-12T19:02:53.833Z,38.23
2019-05-12T19:05:27.522Z,8.47
2019-05-12T19:07:54.312Z,7.27
2019-05-12T19:10:27.052Z,9.13
2019-05-12T19:13:02.039Z,8.77
2019-05-12T19:15:30.617Z,17.67
2019-05-12T19:18:00.290Z,6.60
2019-05-12T19:20:31.312Z,6.40
2019-05-12T19:23:04.260Z,8.13
2019-05-12T19:25:40.608Z,10.33
2019-05-12T19:28:16.590Z,9.60
2019-05-12T19:30:44.715Z,18.80
2019-05-12T19:33:18.725Z,7.10
2019-05-12T19:35:59.798Z,4.70
2019-05-12T19:38:25.549Z,6.03
2019-05-12T19:41:00.855Z,9.00
2019-05-12T19:43:33.995Z,13.27
2019-05-12T19:46:07.150Z,5.47
2019-05-12T19:48:44.347Z,9.43
2019-05-12T19:51:21.898Z,7.93
2019-05-12T19:53:45.939Z,7.37
2019-05-12T19:56:19.689Z,6.03
2019-05-12T19:58:53.715Z,4.13
2019-05-12T20:01:26.015Z,4.67
2019-05-12T20:04:03.497Z,15.27
2019-05-12T20:06:26.540Z,5.70
2019-05-12T20:09:05.972Z,5.90
2019-05-12T20:11:31.571Z,4.30
2019-05-12T20:14:00.905Z,3.97
2019-05-12T20:16:31.861Z,6.17
2019-05-12T20:19:04.257Z,13.73
2019-05-12T20:21:43.593Z,5.07
2019-05-12T20:24:14.452Z,8.43
2019-05-12T20:26:46.624Z,3.80
2019-05-12T20:29:16.543Z,3.20
2019-05-12T20:31:48.862Z,7.87
2019-05-12T20:34:24.475Z,5.77
2019-05-12T20:36:58.974Z,2.93
2019-05-12T20:39:28.795Z,4.23
2019-05-12T20:42:02.465Z,3.57
2019-05-12T20:44:34.439Z,13.97
2019-05-12T20:47:06.505Z,9.57
2019-05-12T20:49:45.078Z,5.40
2019-05-12T20:52:09.723Z,4.50
2019-05-12T20:54:44.148Z,4.73
2019-05-12T20:57:18.465Z,4.20
2019-05-12T20:59:51.517Z,3.13
2019-05-12T21:02:23.538Z,3.90
2019-05-12T21:05:01.053Z,4.20
2019-05-12T21:07:28.320Z,3.47
2019-05-12T21:10:04.018Z,2.93
2019-05-12T21:12:33.453Z,4.60
2019-05-12T21:15:13.838Z,2.97
2019-05-12T21:17:43.618Z,3.57
2019-05-12T21:20:11.834Z,2.90
2019-05-12T21:22:40.470Z,24.77
2019-05-12T21:25:12.845Z,5.00
2019-05-12T21:27:46.842Z,3.50
2019-05-12T21:30:15.138Z,7.60
2019-05-12T21:33:01.078Z,11.00
2019-05-12T21:35:26.170Z,4.70
2019-05-12T21:38:06.903Z,11.40
2019-05-12T21:40:31.809Z,8.33
2019-05-12T21:43:07.727Z,7.83
2019-05-12T21:45:46.656Z,7.03
2019-05-12T21:48:28.658Z,10.87
2019-05-12T21:51:00.491Z,3.57
2019-05-12T21:53:34.323Z,6.77
2019-05-12T21:56:18.173Z,3.20
2019-05-12T21:58:53.471Z,7.23
2019-05-12T22:01:19.327Z,5.37
2019-05-12T22:03:57.899Z,3.03
2019-05-12T22:06:21.710Z,8.30
2019-05-12T22:08:55.370Z,9.00
2019-05-12T22:11:23.907Z,3.70
2019-05-12T22:13:59.811Z,4.80
2019-05-12T22:16:29.507Z,10.60
2019-05-12T22:18:59.419Z,3.17
2019-05-12T22:21:27.557Z,5.50
2019-05-12T22:24:04.015Z,13.80
2019-05-12T22:26:39.680Z,8.83
2019-05-12T22:29:04.374Z,9.97
2019-05-12T22:31:38.558Z,3.87
2019-05-12T22:34:06.994Z,7.80
2019-05-12T22:36:36.522Z,3.47
2019-05-12T22:39:07.587Z,3.67
2019-05-12T22:41:41.620Z,3.20
2019-05-12T22:44:18.339Z,9.87
2019-05-12T22:46:54.006Z,2.40
2019-05-12T22:49:21.007Z,5.40
2019-05-12T22:51:54.592Z,3.20
2019-05-12T22:54:24.354Z,3.57
2019-05-12T22:56:57.646Z,7.03
2019-05-12T22:59:34.397Z,5.17
2019-05-12T23:02:00.725Z,6.70
2019-05-12T23:04:35.660Z,4.50
2019-05-12T23:07:01.812Z,3.40
2019-05-12T23:09:35.004Z,5.47
2019-05-12T23:12:09.801Z,4.37
2019-05-12T23:14:45.480Z,5.90
2019-05-12T23:17:13.802Z,8.37
2019-05-12T23:19:51.528Z,5.77
2019-05-12T23:22:14.809Z,2.53
2019-05-12T23:24:44.454Z,3.37
2019-05-12T23:27:18.922Z,3.30
2019-05-12T23:29:48.457Z,3.60
2019-05-12T23:32:19.476Z,4.87
2019-05-12T23:34:53.945Z,3.97
2019-05-12T23:37:24.402Z,2.87
2019-05-12T23:39:53.843Z,3.93
2019-05-12T23:42:24.968Z,2.73
2019-05-12T23:44:54.608Z,3.33
2019-05-12T23:47:24.194Z,3.10
2019-05-12T23:49:55.455Z,2.60
2019-05-12T23:52:25.019Z,3.23
2019-05-12T23:54:56.300Z,2.67
2019-05-12T23:57:29.978Z,2.27
